createdAt,value
2023-03-01T00:02:00.818Z,99808.13
2023-03-01T00:04:29.829Z,99811.22
2023-03-01T00:06:59.003Z,99823.94
2023-03-01T00:09:27.931Z,99820.53
2023-03-01T00:11:56.868Z,99836.63
2023-03-01T00:14:25.855Z,99832.13
2023-03-01T00:16:58.208Z,99843.56
2023-03-01T00:19:27.264Z,99839.53
2023-03-01T00:21:56.144Z,99844.09
2023-03-01T00:24:25.166Z,99834.94
2023-03-01T00:26:57.716Z,99846.09
2023-03-01T00:29:27.329Z,99847.16
2023-03-01T00:31:57.548Z,99849.41
2023-03-01T00:34:26.593Z,99858.00
2023-03-01T00:36:57.244Z,99857.81
2023-03-01T00:39:26.198Z,99859.34
2023-03-01T00:41:55.156Z,99863.66
2023-03-01T00:44:24.174Z,99867.00
2023-03-01T00:46:53.087Z,99862.81
2023-03-01T00:49:21.947Z,99869.09
2023-03-01T00:51:50.899Z,99867.41
2023-03-01T00:54:19.766Z,99876.31
2023-03-01T00:56:49.784Z,99879.94
2023-03-01T00:59:18.728Z,99888.59
2023-03-01T01:01:47.661Z,99892.81
2023-03-01T01:04:16.874Z,99898.44
2023-03-01T01:06:49.018Z,99898.34
2023-03-01T01:09:19.279Z,99903.94
2023-03-01T01:11:53.045Z,99908.34
2023-03-01T01:14:22.349Z,99906.75
2023-03-01T01:16:51.349Z,99909.06
2023-03-01T01:19:20.672Z,99909.25
2023-03-01T01:21:57.143Z,99912.72
2023-03-01T01:24:31.978Z,99916.59
2023-03-01T01:27:02.933Z,99907.13
2023-03-01T01:29:32.622Z,99914.94
2023-03-01T01:32:01.783Z,99917.94
2023-03-01T01:34:30.810Z,99924.16
2023-03-01T01:37:06.982Z,99937.38
2023-03-01T01:39:37.525Z,99940.31
2023-03-01T01:42:06.674Z,99941.41
2023-03-01T01:44:36.302Z,99952.72
2023-03-01T01:47:16.568Z,99960.22
2023-03-01T01:49:56.480Z,99965.66
2023-03-01T01:52:37.908Z,99974.44
2023-03-01T01:55:12.379Z,99973.22
2023-03-01T01:57:47.370Z,99983.69
2023-03-01T02:00:22.838Z,99995.06
2023-03-01T02:02:58.746Z,99992.31
2023-03-01T02:05:39.687Z,100002.34
2023-03-01T02:08:10.377Z,100009.47
2023-03-01T02:10:40.937Z,100015.56
2023-03-01T02:13:10.995Z,100009.50
2023-03-01T02:15:41.575Z,100016.66
2023-03-01T02:18:14.099Z,100021.22
2023-03-01T02:20:50.547Z,100032.22
2023-03-01T02:23:19.863Z,100033.66
2023-03-01T02:26:09.268Z,100025.63
2023-03-01T02:28:40.395Z,100036.94
2023-03-01T02:31:30.019Z,100043.06
2023-03-01T02:33:59.975Z,100050.19
2023-03-01T02:36:36.516Z,100065.75
2023-03-01T02:39:08.486Z,100060.13
2023-03-01T02:41:41.241Z,100066.31
2023-03-01T02:44:10.340Z,100075.19
2023-03-01T02:46:52.244Z,100085.63
2023-03-01T02:49:24.791Z,100077.69
2023-03-01T02:52:15.299Z,100086.06
2023-03-01T02:54:53.650Z,100084.81
2023-03-01T02:57:25.452Z,100082.78
2023-03-01T02:59:56.774Z,100078.03
2023-03-01T03:02:38.390Z,100090.56
2023-03-01T03:05:25.988Z,100092.16
2023-03-01T03:07:59.833Z,100089.66
2023-03-01T03:10:35.724Z,100097.03
2023-03-01T03:13:11.882Z,100101.16
2023-03-01T03:15:43.192Z,100100.09
2023-03-01T03:18:15.421Z,100111.56
2023-03-01T03:20:45.885Z,100099.88
2023-03-01T03:23:15.951Z,100090.34
2023-03-01T03:25:49.640Z,100095.81
2023-03-01T03:28:19.524Z,100109.88
2023-03-01T03:30:50.147Z,100109.88
2023-03-01T03:33:19.222Z,100113.66
2023-03-01T03:35:54.099Z,100112.16
2023-03-01T03:38:23.872Z,100125.31
2023-03-01T03:41:07.039Z,100133.97
2023-03-01T03:43:42.084Z,100124.41
2023-03-01T03:46:12.752Z,100143.13
2023-03-01T03:48:44.707Z,100145.94
2023-03-01T03:51:16.436Z,100150.50
2023-03-01T03:53:49.551Z,100154.50
2023-03-01T03:56:21.180Z,100158.50
2023-03-01T03:58:50.150Z,100162.63
2023-03-01T04:01:19.241Z,100169.72
2023-03-01T04:03:58.880Z,100168.25
2023-03-01T04:06:28.528Z,100175.22
2023-03-01T04:09:01.853Z,100177.28
2023-03-01T04:11:31.029Z,100182.53
2023-03-01T04:14:01.261Z,100187.44
2023-03-01T04:16:30.850Z,100194.34
2023-03-01T04:19:01.520Z,100196.66
2023-03-01T04:21:30.559Z,100197.09
2023-03-01T04:23:59.578Z,100205.56
2023-03-01T04:26:29.343Z,100206.69
2023-03-01T04:28:58.609Z,100203.03
2023-03-01T04:31:27.539Z,100220.81
2023-03-01T04:34:02.404Z,100221.03
2023-03-01T04:36:32.098Z,100217.16
2023-03-01T04:39:01.459Z,100228.97
2023-03-01T04:41:30.328Z,100231.50
2023-03-01T04:44:01.863Z,100237.63
2023-03-01T04:46:40.600Z,100235.38
2023-03-01T04:49:12.616Z,100246.06
2023-03-01T04:51:41.616Z,100241.94
2023-03-01T04:54:10.543Z,100245.56
2023-03-01T04:56:39.556Z,100237.84
2023-03-01T04:59:10.259Z,100233.72
2023-03-01T05:01:39.683Z,100238.94
2023-03-01T05:04:09.116Z,100247.47
2023-03-01T05:06:38.130Z,100252.91
2023-03-01T05:09:10.310Z,100258.69
2023-03-01T05:11:48.345Z,100268.69
2023-03-01T05:14:24.000Z,100271.25
2023-03-01T05:16:55.864Z,100271.72
2023-03-01T05:19:28.980Z,100277.50
2023-03-01T05:22:04.207Z,100277.25
2023-03-01T05:24:37.660Z,100285.44
2023-03-01T05:27:08.135Z,100292.03
2023-03-01T05:29:41.246Z,100306.81
2023-03-01T05:32:11.536Z,100309.09
2023-03-01T05:34:40.738Z,100312.13
2023-03-01T05:37:12.982Z,100307.69
2023-03-01T05:39:45.098Z,100317.38
2023-03-01T05:42:53.766Z,100322.19
2023-03-01T05:45:56.301Z,100318.78
2023-03-01T05:48:29.814Z,100325.88
2023-03-01T05:51:03.062Z,100325.72
2023-03-01T05:53:32.095Z,100330.38
2023-03-01T05:56:00.998Z,100330.75
2023-03-01T05:58:29.948Z,100340.38
2023-03-01T06:00:59.064Z,100344.22
2023-03-01T06:03:31.201Z,100336.22
2023-03-01T06:06:00.692Z,100345.91
2023-03-01T06:08:29.647Z,100346.59
2023-03-01T06:10:58.563Z,100358.56
2023-03-01T06:13:27.530Z,100344.97
2023-03-01T06:15:56.549Z,100341.00
2023-03-01T06:18:25.480Z,100343.44
2023-03-01T06:20:58.641Z,100352.31
2023-03-01T06:23:27.723Z,100354.38
2023-03-01T06:25:56.768Z,100363.38
2023-03-01T06:28:25.826Z,100366.75
2023-03-01T06:30:55.107Z,100381.44
2023-03-01T06:33:26.070Z,100383.69
2023-03-01T06:35:58.183Z,100388.53
2023-03-01T06:38:27.264Z,100396.50
2023-03-01T06:40:58.228Z,100394.47
2023-03-01T06:43:27.609Z,100396.38
2023-03-01T06:45:56.622Z,100405.84
2023-03-01T06:48:25.716Z,100418.19
2023-03-01T06:50:54.752Z,100430.50
2023-03-01T06:53:23.824Z,100439.47
2023-03-01T06:56:04.774Z,100461.16
2023-03-01T06:58:33.845Z,100466.28
2023-03-01T07:01:08.242Z,100476.88
2023-03-01T07:03:37.278Z,100476.53
2023-03-01T07:06:06.329Z,100481.19
2023-03-01T07:08:35.402Z,100483.13
2023-03-01T07:11:07.564Z,100489.06
2023-03-01T07:13:36.516Z,100489.69
2023-03-01T07:16:05.608Z,100485.66
2023-03-01T07:18:34.703Z,100499.63
2023-03-01T07:21:08.898Z,100505.09
2023-03-01T07:23:37.862Z,100502.06
2023-03-01T07:26:06.896Z,100500.59
2023-03-01T07:28:40.864Z,100498.81
2023-03-01T07:31:09.841Z,100498.81
2023-03-01T07:33:38.845Z,100494.03
2023-03-01T07:36:08.532Z,100505.59
2023-03-01T07:38:37.531Z,100512.31
2023-03-01T07:41:07.554Z,100519.72
2023-03-01T07:43:36.740Z,100520.16
2023-03-01T07:46:06.615Z,100521.94
2023-03-01T07:48:36.174Z,100515.47
2023-03-01T07:51:07.544Z,100522.28
2023-03-01T07:53:37.216Z,100518.63
2023-03-01T07:56:14.183Z,100520.63
2023-03-01T07:58:44.689Z,100521.59
2023-03-01T08:01:16.792Z,100533.97
2023-03-01T08:03:46.059Z,100539.28
2023-03-01T08:06:18.014Z,100537.03
2023-03-01T08:08:47.545Z,100540.72
2023-03-01T08:11:17.538Z,100535.09
2023-03-01T08:13:52.286Z,100543.47
2023-03-01T08:16:22.883Z,100536.88
2023-03-01T08:18:51.970Z,100543.91
2023-03-01T08:21:20.960Z,100560.13
2023-03-01T08:23:49.873Z,100565.28
2023-03-01T08:26:21.531Z,100559.97
2023-03-01T08:28:52.042Z,100560.47
2023-03-01T08:31:30.434Z,100565.13
2023-03-01T08:34:02.249Z,100571.19
2023-03-01T08:36:34.795Z,100574.44
2023-03-01T08:39:04.651Z,100579.94
2023-03-01T08:41:33.843Z,100584.22
2023-03-01T08:44:03.070Z,100579.53
2023-03-01T08:46:37.999Z,100572.25
2023-03-01T08:49:12.976Z,100576.63
2023-03-01T08:51:42.130Z,100576.44
2023-03-01T08:54:21.737Z,100574.88
2023-03-01T08:56:50.853Z,100580.09
2023-03-01T08:59:20.295Z,100579.78
2023-03-01T09:01:49.634Z,100569.63
2023-03-01T09:04:18.662Z,100576.09
2023-03-01T09:06:47.681Z,100585.63
2023-03-01T09:09:19.103Z,100587.75
2023-03-01T09:11:49.180Z,100588.53
2023-03-01T09:14:18.388Z,100600.56
2023-03-01T09:16:48.362Z,100596.50
2023-03-01T09:19:17.336Z,100608.53
2023-03-01T09:21:55.089Z,100608.69
2023-03-01T09:24:26.586Z,100621.03
2023-03-01T09:26:57.632Z,100626.56
2023-03-01T09:29:27.696Z,100622.91
2023-03-01T09:31:57.036Z,100621.88
2023-03-01T09:34:26.121Z,100626.69
2023-03-01T09:36:55.214Z,100621.72
2023-03-01T09:39:24.303Z,100629.25
2023-03-01T09:42:04.566Z,100636.88
2023-03-01T09:44:45.851Z,100642.56
2023-03-01T09:47:26.471Z,100649.13
2023-03-01T09:50:11.397Z,100653.41
2023-03-01T09:53:05.029Z,100658.59
2023-03-01T09:55:44.769Z,100667.84
2023-03-01T09:58:25.852Z,100680.56
2023-03-01T10:00:56.098Z,100686.44
2023-03-01T10:03:25.847Z,100687.78
2023-03-01T10:06:35.058Z,100697.19
2023-03-01T10:09:15.927Z,100694.13
2023-03-01T10:11:54.795Z,100698.75
2023-03-01T10:14:37.117Z,100703.88
2023-03-01T10:17:35.184Z,100709.00
2023-03-01T10:20:44.813Z,100722.59
2023-03-01T10:23:13.911Z,100727.81
2023-03-01T10:25:47.152Z,100727.03
2023-03-01T10:28:54.436Z,100731.13
2023-03-01T10:31:31.422Z,100743.91
2023-03-01T10:34:02.959Z,100760.44
2023-03-01T10:36:35.064Z,100760.22
2023-03-01T10:39:16.979Z,100778.72
2023-03-01T10:42:05.152Z,100788.06
2023-03-01T10:44:38.731Z,100780.25
2023-03-01T10:47:18.333Z,100783.94
2023-03-01T10:50:02.436Z,100786.50
2023-03-01T10:52:37.049Z,100777.84
2023-03-01T10:55:18.395Z,100787.31
2023-03-01T10:57:47.378Z,100784.22
2023-03-01T11:00:24.201Z,100781.94
2023-03-01T11:03:12.804Z,100770.88
2023-03-01T11:06:24.347Z,100781.22
2023-03-01T11:08:54.665Z,100765.28
2023-03-01T11:11:36.617Z,100763.72
2023-03-01T11:14:26.345Z,100761.44
2023-03-01T11:17:14.441Z,100752.63
2023-03-01T11:19:46.930Z,100761.06
2023-03-01T11:22:24.639Z,100759.22
2023-03-01T11:25:09.078Z,100752.28
2023-03-01T11:27:50.150Z,100755.13
2023-03-01T11:30:58.661Z,100770.44
2023-03-01T11:34:12.960Z,100767.63
2023-03-01T11:36:58.507Z,100773.66
2023-03-01T11:39:52.233Z,100773.41
2023-03-01T11:43:01.852Z,100778.28
2023-03-01T11:45:57.390Z,100785.59
2023-03-01T11:48:48.885Z,100778.66
2023-03-01T11:51:24.730Z,100799.59
2023-03-01T11:54:20.539Z,100809.72
2023-03-01T11:57:11.700Z,100830.88
2023-03-01T12:00:17.726Z,100841.97
2023-03-01T12:03:15.615Z,100856.28
2023-03-01T12:05:47.456Z,100871.09
2023-03-01T12:08:25.913Z,100883.88
2023-03-01T12:11:16.450Z,100887.53
2023-03-01T12:14:04.017Z,100900.69
2023-03-01T12:16:41.936Z,100907.50
2023-03-01T12:19:31.428Z,100906.88
2023-03-01T12:22:18.727Z,100918.81
2023-03-01T12:24:50.381Z,100915.75
2023-03-01T12:27:56.335Z,100919.97
2023-03-01T12:31:09.872Z,100928.22
2023-03-01T12:33:56.746Z,100944.81
2023-03-01T12:36:52.017Z,100945.81
2023-03-01T12:39:41.480Z,100945.16
2023-03-01T12:42:36.497Z,100942.59
2023-03-01T12:45:42.297Z,100957.50
2023-03-01T12:48:23.413Z,100956.25
2023-03-01T12:50:59.915Z,100960.34
2023-03-01T12:53:51.033Z,100970.22
2023-03-01T12:56:32.800Z,100971.38
2023-03-01T12:59:25.826Z,100971.34
2023-03-01T13:02:13.036Z,100975.16
2023-03-01T13:04:56.355Z,100977.88
2023-03-01T13:07:51.100Z,100976.78
2023-03-01T13:10:33.654Z,100981.34
2023-03-01T13:13:20.703Z,100983.59
2023-03-01T13:15:50.542Z,100986.44
2023-03-01T13:18:21.196Z,100991.66
2023-03-01T13:20:52.750Z,100991.91
2023-03-01T13:23:24.545Z,100991.28
2023-03-01T13:26:13.704Z,100994.53
2023-03-01T13:28:46.849Z,100994.78
2023-03-01T13:31:22.157Z,101006.28
2023-03-01T13:33:52.392Z,101015.34
2023-03-01T13:36:31.186Z,101014.78
2023-03-01T13:39:02.578Z,101010.38
2023-03-01T13:41:43.660Z,101009.50
2023-03-01T13:44:43.618Z,101020.38
2023-03-01T13:47:14.413Z,101023.84
2023-03-01T13:50:06.274Z,101032.66
2023-03-01T13:52:43.161Z,101041.50
2023-03-01T13:55:27.000Z,101040.13
2023-03-01T13:58:01.963Z,101052.81
2023-03-01T14:00:35.202Z,101064.06
2023-03-01T14:03:21.717Z,101061.56
2023-03-01T14:06:17.332Z,101064.31
2023-03-01T14:08:49.418Z,101057.00
2023-03-01T14:11:40.675Z,101055.38
2023-03-01T14:14:40.648Z,101061.25
2023-03-01T14:17:32.134Z,101064.91
2023-03-01T14:20:06.127Z,101069.91
2023-03-01T14:22:37.781Z,101068.81
2023-03-01T14:25:23.626Z,101059.91
2023-03-01T14:27:59.997Z,101062.94
2023-03-01T14:30:38.869Z,101065.28
2023-03-01T14:33:21.406Z,101075.59
2023-03-01T14:36:04.197Z,101079.22
2023-03-01T14:38:49.367Z,101088.66
2023-03-01T14:41:22.108Z,101096.13
2023-03-01T14:44:02.986Z,101095.13
2023-03-01T14:46:40.429Z,101097.28
2023-03-01T14:49:17.845Z,101108.47
2023-03-01T14:52:04.197Z,101115.25
2023-03-01T14:54:42.188Z,101112.81
2023-03-01T14:57:20.062Z,101128.78
2023-03-01T14:59:52.464Z,101130.25
2023-03-01T15:02:24.533Z,101132.69
2023-03-01T15:05:04.413Z,101128.84
2023-03-01T15:07:37.784Z,101141.38
2023-03-01T15:10:08.920Z,101143.59
2023-03-01T15:12:41.312Z,101147.13
2023-03-01T15:15:44.998Z,101152.41
2023-03-01T15:18:29.320Z,101154.31
2023-03-01T15:21:07.260Z,101156.94
2023-03-01T15:23:37.047Z,101159.78
2023-03-01T15:26:06.129Z,101159.97
2023-03-01T15:28:45.029Z,101164.28
2023-03-01T15:31:27.511Z,101166.91
2023-03-01T15:34:12.360Z,101170.47
2023-03-01T15:36:47.796Z,101168.44
2023-03-01T15:39:39.120Z,101166.72
2023-03-01T15:42:34.228Z,101167.03
2023-03-01T15:45:16.735Z,101170.78
2023-03-01T15:47:51.895Z,101176.91
2023-03-01T15:50:42.072Z,101177.19
2023-03-01T15:53:16.188Z,101175.16
2023-03-01T15:55:45.715Z,101183.13
2023-03-01T15:58:23.660Z,101184.31
2023-03-01T16:01:01.101Z,101179.88
2023-03-01T16:03:31.622Z,101188.38
2023-03-01T16:06:00.600Z,101194.25
2023-03-01T16:08:29.616Z,101199.88
2023-03-01T16:10:58.721Z,101197.00
2023-03-01T16:13:29.272Z,101205.31
2023-03-01T16:15:58.428Z,101207.91
2023-03-01T16:18:27.411Z,101197.69
2023-03-01T16:20:56.445Z,101210.22
2023-03-01T16:23:26.799Z,101210.81
2023-03-01T16:25:55.775Z,101231.94
2023-03-01T16:28:24.775Z,101231.78
2023-03-01T16:30:54.107Z,101244.31
2023-03-01T16:33:31.848Z,101254.84
2023-03-01T16:36:09.367Z,101258.09
2023-03-01T16:38:38.534Z,101262.50
2023-03-01T16:41:07.589Z,101262.69
2023-03-01T16:43:36.636Z,101256.38
2023-03-01T16:46:22.364Z,101256.81
2023-03-01T16:48:54.560Z,101251.47
2023-03-01T16:51:24.929Z,101264.09
2023-03-01T16:53:54.821Z,101271.53
2023-03-01T16:56:26.506Z,101261.25
2023-03-01T16:58:55.881Z,101256.72
2023-03-01T17:01:27.731Z,101260.69
2023-03-01T17:03:56.866Z,101262.22
2023-03-01T17:06:26.624Z,101267.19
2023-03-01T17:08:55.588Z,101251.81
2023-03-01T17:11:24.697Z,101258.34
2023-03-01T17:13:53.910Z,101259.88
2023-03-01T17:16:23.662Z,101251.91
2023-03-01T17:18:52.718Z,101260.09
2023-03-01T17:21:21.869Z,101259.72
2023-03-01T17:23:51.160Z,101266.53
2023-03-01T17:26:20.324Z,101271.56
2023-03-01T17:28:53.067Z,101281.72
2023-03-01T17:31:22.929Z,101279.72
2023-03-01T17:33:53.078Z,101290.72
2023-03-01T17:36:22.048Z,101303.81
2023-03-01T17:38:51.642Z,101311.91
2023-03-01T17:41:22.689Z,101311.47
2023-03-01T17:43:51.703Z,101315.06
2023-03-01T17:46:20.672Z,101317.72
2023-03-01T17:48:50.841Z,101316.25
2023-03-01T17:51:20.204Z,101312.41
2023-03-01T17:53:49.290Z,101321.09
2023-03-01T17:56:18.405Z,101334.75
2023-03-01T17:58:47.686Z,101324.31
2023-03-01T18:01:20.044Z,101318.56
2023-03-01T18:03:56.143Z,101317.59
2023-03-01T18:06:30.275Z,101316.06
2023-03-01T18:09:00.463Z,101335.06
2023-03-01T18:11:29.768Z,101322.91
2023-03-01T18:13:58.930Z,101334.66
2023-03-01T18:16:29.149Z,101330.97
2023-03-01T18:18:59.342Z,101333.84
2023-03-01T18:21:30.139Z,101342.63
2023-03-01T18:24:02.659Z,101340.69
2023-03-01T18:26:31.885Z,101341.66
2023-03-01T18:29:04.213Z,101347.22
2023-03-01T18:31:34.127Z,101339.47
2023-03-01T18:34:03.440Z,101349.00
2023-03-01T18:36:35.407Z,101349.13
2023-03-01T18:39:07.244Z,101345.09
2023-03-01T18:41:37.214Z,101345.59
2023-03-01T18:44:07.387Z,101341.59
2023-03-01T18:46:38.324Z,101344.97
2023-03-01T18:49:09.379Z,101347.06
2023-03-01T18:51:38.570Z,101340.47
2023-03-01T18:54:08.275Z,101344.00
2023-03-01T18:56:37.238Z,101341.06
2023-03-01T18:59:06.754Z,101355.59
2023-03-01T19:01:37.587Z,101348.16
2023-03-01T19:04:07.459Z,101349.09
2023-03-01T19:06:36.551Z,101330.16
2023-03-01T19:09:08.097Z,101334.41
2023-03-01T19:11:37.368Z,101339.03
2023-03-01T19:14:06.500Z,101339.94
2023-03-01T19:16:36.749Z,101336.03
2023-03-01T19:19:09.177Z,101344.38
2023-03-01T19:21:38.592Z,101345.34
2023-03-01T19:24:08.617Z,101350.47
2023-03-01T19:26:38.066Z,101357.94
2023-03-01T19:29:07.061Z,101362.41
2023-03-01T19:31:36.034Z,101363.66
2023-03-01T19:34:11.382Z,101362.22
2023-03-01T19:36:43.410Z,101363.69
2023-03-01T19:39:14.371Z,101354.56
2023-03-01T19:41:45.799Z,101361.94
2023-03-01T19:44:15.519Z,101363.72
2023-03-01T19:46:44.465Z,101360.84
2023-03-01T19:49:13.465Z,101355.81
2023-03-01T19:51:42.375Z,101355.03
2023-03-01T19:54:22.500Z,101357.41
2023-03-01T19:56:52.550Z,101353.00
2023-03-01T19:59:25.028Z,101356.38
2023-03-01T20:01:54.380Z,101353.38
2023-03-01T20:04:23.450Z,101355.19
2023-03-01T20:06:52.506Z,101367.81
2023-03-01T20:09:22.629Z,101356.13
2023-03-01T20:11:52.439Z,101357.47
2023-03-01T20:14:23.862Z,101368.09
2023-03-01T20:16:53.986Z,101361.81
2023-03-01T20:19:25.427Z,101364.09
2023-03-01T20:21:54.375Z,101363.13
2023-03-01T20:24:23.485Z,101369.81
2023-03-01T20:26:52.472Z,101377.75
2023-03-01T20:29:21.531Z,101381.69
2023-03-01T20:31:50.937Z,101381.44
2023-03-01T20:34:21.340Z,101377.00
2023-03-01T20:36:50.454Z,101381.94
2023-03-01T20:39:19.391Z,101382.66
2023-03-01T20:41:48.344Z,101382.31
2023-03-01T20:44:17.380Z,101379.56
2023-03-01T20:46:46.521Z,101375.75
2023-03-01T20:49:15.471Z,101390.00
2023-03-01T20:51:45.204Z,101394.81
2023-03-01T20:54:15.020Z,101388.31
2023-03-01T20:56:44.068Z,101386.34
2023-03-01T20:59:13.857Z,101386.94
2023-03-01T21:01:47.117Z,101391.78
2023-03-01T21:04:18.649Z,101382.41
2023-03-01T21:06:48.658Z,101387.78
2023-03-01T21:09:20.858Z,101381.44
2023-03-01T21:11:52.668Z,101389.00
2023-03-01T21:14:22.423Z,101399.41
2023-03-01T21:16:52.031Z,101385.91
2023-03-01T21:19:24.507Z,101388.97
2023-03-01T21:21:54.618Z,101395.41
2023-03-01T21:24:23.587Z,101395.66
2023-03-01T21:26:52.900Z,101395.66
2023-03-01T21:29:21.941Z,101396.69
2023-03-01T21:31:51.594Z,101396.38
2023-03-01T21:34:20.730Z,101410.78
2023-03-01T21:36:52.608Z,101408.03
2023-03-01T21:39:22.569Z,101404.59
2023-03-01T21:41:54.362Z,101402.50
2023-03-01T21:44:27.674Z,101409.38
2023-03-01T21:46:58.808Z,101421.81
2023-03-01T21:49:28.543Z,101414.41
2023-03-01T21:51:57.735Z,101409.41
2023-03-01T21:54:27.171Z,101417.56
2023-03-01T21:56:56.202Z,101412.63
2023-03-01T21:59:29.306Z,101418.72
2023-03-01T22:01:58.344Z,101415.13
2023-03-01T22:04:27.381Z,101412.34
2023-03-01T22:06:56.479Z,101427.78
2023-03-01T22:09:25.559Z,101413.88
2023-03-01T22:12:03.500Z,101414.41
2023-03-01T22:14:36.902Z,101410.31
2023-03-01T22:17:10.315Z,101416.53
2023-03-01T22:19:39.361Z,101409.84
2023-03-01T22:22:11.041Z,101419.31
2023-03-01T22:24:40.000Z,101416.09
2023-03-01T22:27:08.865Z,101416.69
2023-03-01T22:29:38.166Z,101409.81
2023-03-01T22:32:07.296Z,101411.69
2023-03-01T22:34:36.856Z,101416.44
2023-03-01T22:37:06.092Z,101413.53
2023-03-01T22:39:35.310Z,101405.13
2023-03-01T22:42:04.265Z,101407.31
2023-03-01T22:44:33.742Z,101402.44
2023-03-01T22:47:02.638Z,101407.91
2023-03-01T22:49:34.118Z,101405.63
2023-03-01T22:52:03.268Z,101412.16
2023-03-01T22:54:34.313Z,101402.97
2023-03-01T22:57:04.504Z,101407.47
2023-03-01T22:59:33.797Z,101406.88
2023-03-01T23:02:06.105Z,101408.97
2023-03-01T23:04:35.333Z,101414.00
2023-03-01T23:07:05.031Z,101417.03
2023-03-01T23:09:36.880Z,101406.44
2023-03-01T23:12:08.265Z,101402.06
2023-03-01T23:14:38.501Z,101408.97
2023-03-01T23:17:20.408Z,101411.75
2023-03-01T23:19:52.953Z,101414.84
2023-03-01T23:22:27.025Z,101408.97
2023-03-01T23:24:55.996Z,101410.34
2023-03-01T23:27:27.477Z,101417.94
2023-03-01T23:29:56.559Z,101408.03
2023-03-01T23:32:28.737Z,101415.78
2023-03-01T23:34:57.948Z,101414.16
2023-03-01T23:37:31.444Z,101416.09
2023-03-01T23:40:02.963Z,101415.88
2023-03-01T23:42:32.161Z,101417.34
2023-03-01T23:45:01.194Z,101421.72
2023-03-01T23:47:30.254Z,101418.59
2023-03-01T23:50:00.735Z,101416.56
2023-03-01T23:52:39.898Z,101427.91
2023-03-01T23:55:11.527Z,101431.72
2023-03-01T23:57:40.634Z,101430.81
